createdAt,value
2019-03-17T00:00:29.837Z,93.20
2019-03-17T00:02:56.057Z,93.30
2019-03-17T00:05:22.382Z,93.20
2019-03-17T00:07:48.787Z,93.20
2019-03-17T00:10:15.070Z,93.20
2019-03-17T00:12:41.290Z,93.30
2019-03-17T00:15:07.937Z,93.20
2019-03-17T00:17:34.231Z,93.20
2019-03-17T00:20:00.549Z,93.20
2019-03-17T00:22:26.884Z,93.10
2019-03-17T00:24:53.095Z,93.20
2019-03-17T00:27:19.303Z,93.30
2019-03-17T00:29:45.580Z,93.30
2019-03-17T00:32:11.796Z,93.30
2019-03-17T00:34:44.196Z,93.30
2019-03-17T00:37:07.269Z,93.20
2019-03-17T00:39:33.565Z,93.20
2019-03-17T00:41:59.787Z,93.20
2019-03-17T00:44:26.009Z,93.20
2019-03-17T00:46:52.226Z,93.30
2019-03-17T00:49:18.456Z,93.30
2019-03-17T00:51:45.697Z,93.30
2019-03-17T00:54:11.910Z,93.30
2019-03-17T00:56:38.132Z,93.40
2019-03-17T00:59:04.374Z,93.30
2019-03-17T01:01:30.589Z,93.30
2019-03-17T01:03:56.809Z,93.30
2019-03-17T01:06:23.060Z,93.30
2019-03-17T01:08:49.269Z,93.30
2019-03-17T01:11:15.564Z,93.30
2019-03-17T01:13:42.059Z,93.30
2019-03-17T01:16:08.365Z,93.30
2019-03-17T01:18:34.697Z,93.20
2019-03-17T01:21:00.951Z,93.20
2019-03-17T01:23:27.252Z,93.30
2019-03-17T01:25:53.469Z,93.40
2019-03-17T01:28:19.685Z,93.30
2019-03-17T01:30:45.898Z,93.30
2019-03-17T01:33:12.214Z,93.40
2019-03-17T01:35:38.536Z,93.40
2019-03-17T01:38:04.746Z,93.30
2019-03-17T01:40:30.967Z,93.20
2019-03-17T01:42:57.396Z,93.20
2019-03-17T01:45:23.601Z,93.10
2019-03-17T01:47:49.819Z,93.20
2019-03-17T01:50:16.060Z,93.30
2019-03-17T01:52:42.390Z,93.20
2019-03-17T01:55:08.650Z,93.20
2019-03-17T01:57:34.921Z,93.10
2019-03-17T02:00:01.126Z,92.90
2019-03-17T02:02:27.344Z,93.20
2019-03-17T02:04:53.584Z,93.10
2019-03-17T02:07:19.793Z,93.10
2019-03-17T02:09:46.001Z,93.10
2019-03-17T02:12:13.320Z,93.10
2019-03-17T02:14:39.523Z,93.20
2019-03-17T02:17:05.732Z,93.20
2019-03-17T02:19:31.970Z,93.20
2019-03-17T02:21:58.181Z,93.30
2019-03-17T02:24:24.389Z,93.30
2019-03-17T02:26:50.824Z,93.40
2019-03-17T02:29:17.033Z,93.50
2019-03-17T02:31:43.236Z,93.40
2019-03-17T02:34:11.924Z,93.40
2019-03-17T02:36:37.577Z,93.30
2019-03-17T02:39:04.713Z,93.40
2019-03-17T02:41:31.034Z,93.50
2019-03-17T02:43:57.246Z,93.50
2019-03-17T02:46:23.457Z,93.50
2019-03-17T02:48:50.687Z,93.50
2019-03-17T02:51:18.037Z,93.50
2019-03-17T02:53:44.346Z,93.60
2019-03-17T02:56:10.679Z,93.50
2019-03-17T02:58:36.984Z,93.50
2019-03-17T03:01:03.495Z,93.60
2019-03-17T03:03:29.736Z,93.60
2019-03-17T03:05:55.977Z,93.50
2019-03-17T03:08:22.266Z,93.60
2019-03-17T03:10:48.593Z,93.60
2019-03-17T03:13:14.874Z,93.60
2019-03-17T03:15:41.087Z,93.50
2019-03-17T03:18:07.502Z,93.50
2019-03-17T03:20:33.812Z,93.50
2019-03-17T03:23:00.027Z,93.40
2019-03-17T03:25:26.357Z,93.30
2019-03-17T03:27:52.570Z,93.40
2019-03-17T03:30:18.878Z,93.40
2019-03-17T03:32:45.218Z,93.40
2019-03-17T03:35:11.468Z,93.40
2019-03-17T03:37:37.774Z,93.40
2019-03-17T03:40:09.212Z,93.50
2019-03-17T03:42:35.516Z,93.50
2019-03-17T03:45:03.804Z,93.50
2019-03-17T03:47:29.905Z,93.60
2019-03-17T03:49:57.339Z,93.60
2019-03-17T03:52:23.636Z,93.50
2019-03-17T03:54:49.881Z,93.40
2019-03-17T03:57:16.098Z,93.40
2019-03-17T03:59:42.310Z,93.50
2019-03-17T04:02:08.729Z,93.50
2019-03-17T04:04:35.041Z,93.60
2019-03-17T04:07:01.262Z,93.50
2019-03-17T04:09:27.581Z,93.50
2019-03-17T04:11:53.886Z,93.40
2019-03-17T04:14:20.174Z,93.40
2019-03-17T04:16:46.477Z,93.50
2019-03-17T04:19:12.699Z,93.50
2019-03-17T04:21:39.018Z,93.50
2019-03-17T04:24:05.254Z,93.50
2019-03-17T04:26:31.470Z,93.30
2019-03-17T04:28:57.677Z,93.50
2019-03-17T04:31:23.910Z,93.40
2019-03-17T04:33:50.131Z,93.40
2019-03-17T04:36:16.476Z,93.50
2019-03-17T04:38:44.099Z,93.50
2019-03-17T04:41:10.529Z,93.50
2019-03-17T04:43:36.741Z,93.40
2019-03-17T04:46:02.988Z,93.40
2019-03-17T04:48:29.369Z,93.40
2019-03-17T04:50:55.581Z,93.40
2019-03-17T04:53:21.809Z,93.30
2019-03-17T04:55:48.016Z,93.20
2019-03-17T04:58:14.221Z,93.10
2019-03-17T05:00:40.532Z,93.10
2019-03-17T05:03:06.751Z,93.10
2019-03-17T05:05:32.957Z,93.10
2019-03-17T05:08:00.286Z,93.10
2019-03-17T05:10:26.498Z,93.20
2019-03-17T05:12:52.804Z,93.20
2019-03-17T05:15:19.159Z,93.30
2019-03-17T05:17:45.462Z,93.10
2019-03-17T05:20:11.754Z,93.10
2019-03-17T05:22:38.171Z,93.10
2019-03-17T05:25:05.585Z,93.10
2019-03-17T05:27:31.793Z,93.10
2019-03-17T05:29:59.217Z,93.20
2019-03-17T05:32:25.425Z,93.20
2019-03-17T05:34:51.645Z,93.10
2019-03-17T05:37:18.245Z,93.20
2019-03-17T05:39:44.458Z,93.00
2019-03-17T05:42:10.767Z,93.00
2019-03-17T05:44:37.085Z,92.90
2019-03-17T05:47:03.445Z,92.90
2019-03-17T05:49:29.747Z,92.90
2019-03-17T05:51:56.034Z,92.90
2019-03-17T05:54:22.251Z,93.00
2019-03-17T05:56:48.555Z,92.80
2019-03-17T05:59:14.795Z,92.90
2019-03-17T06:01:40.997Z,92.90
2019-03-17T06:04:07.214Z,93.00
2019-03-17T06:06:33.432Z,92.90
2019-03-17T06:08:59.661Z,92.80
2019-03-17T06:11:25.872Z,92.70
2019-03-17T06:13:52.097Z,92.60
2019-03-17T06:16:18.305Z,92.50
2019-03-17T06:18:44.521Z,92.30
2019-03-17T06:21:10.764Z,92.30
2019-03-17T06:23:37.042Z,92.30
2019-03-17T06:26:03.256Z,92.20
2019-03-17T06:28:29.481Z,92.10
2019-03-17T06:30:55.687Z,92.20
2019-03-17T06:33:21.909Z,92.00
2019-03-17T06:35:49.341Z,91.80
2019-03-17T06:38:15.590Z,91.80
2019-03-17T06:40:41.808Z,91.70
2019-03-17T06:43:08.029Z,91.50
2019-03-17T06:45:34.237Z,91.50
2019-03-17T06:48:00.461Z,91.30
2019-03-17T06:50:26.697Z,91.20
2019-03-17T06:52:53.608Z,91.20
2019-03-17T06:55:20.234Z,91.20
2019-03-17T06:57:46.473Z,91.30
2019-03-17T07:00:13.681Z,91.20
2019-03-17T07:02:39.985Z,91.20
2019-03-17T07:05:07.324Z,91.00
2019-03-17T07:07:43.339Z,91.00
2019-03-17T07:10:04.248Z,91.10
2019-03-17T07:12:30.474Z,91.00
2019-03-17T07:14:56.687Z,91.00
2019-03-17T07:17:22.901Z,90.80
2019-03-17T07:19:49.156Z,90.80
2019-03-17T07:22:15.367Z,90.70
2019-03-17T07:24:41.581Z,90.50
2019-03-17T07:27:07.796Z,90.50
2019-03-17T07:29:34.009Z,90.40
2019-03-17T07:32:00.217Z,90.30
2019-03-17T07:34:26.957Z,90.20
2019-03-17T07:36:53.163Z,90.50
2019-03-17T07:39:19.386Z,91.10
2019-03-17T07:41:45.597Z,91.60
2019-03-17T07:44:11.825Z,92.10
2019-03-17T07:46:38.043Z,92.30
2019-03-17T07:49:04.289Z,92.40
2019-03-17T07:51:30.505Z,92.20
2019-03-17T07:53:56.721Z,92.00
2019-03-17T07:56:22.942Z,91.60
2019-03-17T07:58:49.165Z,91.40
2019-03-17T08:01:15.380Z,90.90
2019-03-17T08:03:41.604Z,90.60
2019-03-17T08:06:07.882Z,90.10
2019-03-17T08:08:35.287Z,90.00
2019-03-17T08:11:01.680Z,90.10
2019-03-17T08:13:27.901Z,90.30
2019-03-17T08:15:54.122Z,90.50
2019-03-17T08:18:20.585Z,90.60
2019-03-17T08:20:46.803Z,90.60
2019-03-17T08:23:13.015Z,90.70
2019-03-17T08:25:39.275Z,90.60
2019-03-17T08:28:05.577Z,90.50
2019-03-17T08:30:31.993Z,90.50
2019-03-17T08:32:58.221Z,90.50
2019-03-17T08:35:24.429Z,90.40
2019-03-17T08:37:50.648Z,90.50
2019-03-17T08:40:17.509Z,90.40
2019-03-17T08:42:43.901Z,90.50
2019-03-17T08:45:11.314Z,90.40
2019-03-17T08:47:37.765Z,90.40
2019-03-17T08:50:06.965Z,90.50
2019-03-17T08:52:34.468Z,90.50
2019-03-17T08:55:00.792Z,90.60
2019-03-17T08:57:27.009Z,90.70
2019-03-17T08:59:53.213Z,90.90
2019-03-17T09:02:19.529Z,90.90
2019-03-17T09:04:45.734Z,91.00
2019-03-17T09:07:11.941Z,91.20
2019-03-17T09:09:38.158Z,91.20
2019-03-17T09:12:04.468Z,91.20
2019-03-17T09:14:30.673Z,91.10
2019-03-17T09:16:56.917Z,91.10
2019-03-17T09:19:23.125Z,91.20
2019-03-17T09:21:49.342Z,91.10
2019-03-17T09:24:17.506Z,91.00
2019-03-17T09:26:43.773Z,91.00
2019-03-17T09:29:10.085Z,91.00
2019-03-17T09:31:36.413Z,91.10
2019-03-17T09:34:03.109Z,91.10
2019-03-17T09:36:32.419Z,91.20
2019-03-17T09:38:58.462Z,91.10
2019-03-17T09:41:24.684Z,91.10
2019-03-17T09:43:50.894Z,91.00
2019-03-17T09:46:17.201Z,91.10
2019-03-17T09:48:43.425Z,90.90
2019-03-17T09:51:09.644Z,91.00
2019-03-17T09:53:35.967Z,91.10
2019-03-17T09:56:02.281Z,91.10
2019-03-17T09:58:28.497Z,91.10
2019-03-17T10:00:54.733Z,91.10
2019-03-17T10:03:20.957Z,91.00
2019-03-17T10:05:49.465Z,91.00
2019-03-17T10:08:15.416Z,91.00
2019-03-17T10:10:41.638Z,91.00
2019-03-17T10:13:07.855Z,90.90
2019-03-17T10:15:34.261Z,90.70
2019-03-17T10:18:00.566Z,90.60
2019-03-17T10:20:26.780Z,90.60
2019-03-17T10:22:53.038Z,90.50
2019-03-17T10:25:20.252Z,90.60
2019-03-17T10:27:46.726Z,90.50
2019-03-17T10:30:14.386Z,90.80
2019-03-17T10:32:41.565Z,90.70
2019-03-17T10:35:08.040Z,90.80
2019-03-17T10:37:34.289Z,90.80
2019-03-17T10:40:00.585Z,90.60
2019-03-17T10:42:26.829Z,90.60
2019-03-17T10:44:53.165Z,90.70
2019-03-17T10:47:19.399Z,90.60
2019-03-17T10:49:45.653Z,90.50
2019-03-17T10:52:11.988Z,90.40
2019-03-17T10:54:38.193Z,90.40
2019-03-17T10:57:04.417Z,90.50
2019-03-17T10:59:30.644Z,90.50
2019-03-17T11:01:56.949Z,90.30
2019-03-17T11:04:23.156Z,90.10
2019-03-17T11:06:50.403Z,89.50
2019-03-17T11:09:25.178Z,89.40
2019-03-17T11:11:44.813Z,89.60
2019-03-17T11:14:11.072Z,88.90
2019-03-17T11:16:37.290Z,88.10
2019-03-17T11:19:03.500Z,87.70
2019-03-17T11:21:29.857Z,87.80
2019-03-17T11:23:56.061Z,87.90
2019-03-17T11:26:22.289Z,87.90
2019-03-17T11:28:48.507Z,87.90
2019-03-17T11:31:14.725Z,88.00
2019-03-17T11:33:40.938Z,88.10
2019-03-17T11:36:07.348Z,88.10
2019-03-17T11:38:33.568Z,88.40
2019-03-17T11:40:59.782Z,88.90
2019-03-17T11:43:26.041Z,89.00
2019-03-17T11:45:52.257Z,89.40
2019-03-17T11:48:18.485Z,89.00
2019-03-17T11:50:44.725Z,89.40
2019-03-17T11:53:10.947Z,88.80
2019-03-17T11:55:37.177Z,88.00
2019-03-17T11:58:03.521Z,87.30
2019-03-17T12:00:29.743Z,88.10
2019-03-17T12:02:56.048Z,88.00
2019-03-17T12:05:22.293Z,88.20
2019-03-17T12:07:48.505Z,88.00
2019-03-17T12:10:21.655Z,87.90
2019-03-17T12:12:47.984Z,88.00
2019-03-17T12:15:21.328Z,87.40
2019-03-17T12:17:47.557Z,87.60
2019-03-17T12:20:14.201Z,87.90
2019-03-17T12:22:40.402Z,88.10
2019-03-17T12:25:11.985Z,88.80
2019-03-17T12:27:38.219Z,88.60
2019-03-17T12:30:17.759Z,88.80
2019-03-17T12:32:44.003Z,88.80
2019-03-17T12:35:10.209Z,89.20
2019-03-17T12:37:36.509Z,89.00
2019-03-17T12:40:03.516Z,89.20
2019-03-17T12:42:29.803Z,89.00
2019-03-17T12:44:56.020Z,88.60
2019-03-17T12:47:22.349Z,88.40
2019-03-17T12:49:48.556Z,88.30
2019-03-17T12:52:14.781Z,88.10
2019-03-17T12:54:41.022Z,88.40
2019-03-17T12:57:07.337Z,88.30
2019-03-17T12:59:33.577Z,87.80
2019-03-17T13:01:59.921Z,87.60
2019-03-17T13:04:26.144Z,87.40
2019-03-17T13:06:52.376Z,87.30
2019-03-17T13:09:18.810Z,87.60
2019-03-17T13:11:45.400Z,87.60
2019-03-17T13:14:11.684Z,87.00
2019-03-17T13:16:38.107Z,86.40
2019-03-17T13:19:04.321Z,86.30
2019-03-17T13:21:30.550Z,85.50
2019-03-17T13:23:56.965Z,85.10
2019-03-17T13:26:23.282Z,85.30
2019-03-17T13:28:49.601Z,85.50
2019-03-17T13:31:16.029Z,86.00
2019-03-17T13:33:42.237Z,86.30
2019-03-17T13:36:08.558Z,86.60
2019-03-17T13:38:34.801Z,87.10
2019-03-17T13:41:01.097Z,88.00
2019-03-17T13:43:27.361Z,88.20
2019-03-17T13:45:53.601Z,88.30
2019-03-17T13:48:19.813Z,88.50
2019-03-17T13:50:46.030Z,88.40
2019-03-17T13:53:12.277Z,87.60
2019-03-17T13:55:38.489Z,87.50
2019-03-17T13:58:09.211Z,87.50
2019-03-17T14:00:35.457Z,87.10
2019-03-17T14:03:01.772Z,87.10
2019-03-17T14:05:27.989Z,86.60
2019-03-17T14:07:54.229Z,86.40
2019-03-17T14:10:20.454Z,86.40
2019-03-17T14:12:46.758Z,85.50
2019-03-17T14:15:13.949Z,84.60
2019-03-17T14:17:40.173Z,84.40
2019-03-17T14:20:09.588Z,84.80
2019-03-17T14:22:35.942Z,84.70
2019-03-17T14:25:05.357Z,84.40
2019-03-17T14:27:31.572Z,83.90
2019-03-17T14:29:57.805Z,83.00
2019-03-17T14:32:24.025Z,82.60
2019-03-17T14:34:50.247Z,82.40
2019-03-17T14:37:16.581Z,81.60
2019-03-17T14:39:42.789Z,80.80
2019-03-17T14:42:09.009Z,79.40
2019-03-17T14:44:35.466Z,78.90
2019-03-17T14:47:01.673Z,79.10
2019-03-17T14:49:27.981Z,78.80
2019-03-17T14:51:54.201Z,78.10
2019-03-17T14:54:20.520Z,78.00
2019-03-17T14:56:46.741Z,77.90
2019-03-17T14:59:12.981Z,77.50
2019-03-17T15:01:39.289Z,78.20
2019-03-17T15:04:05.505Z,78.70
2019-03-17T15:06:31.736Z,78.60
2019-03-17T15:08:57.949Z,78.90
2019-03-17T15:11:24.168Z,79.20
2019-03-17T15:13:50.410Z,79.10
2019-03-17T15:16:16.689Z,78.90
2019-03-17T15:18:42.897Z,79.00
2019-03-17T15:21:09.132Z,78.60
2019-03-17T15:23:35.333Z,79.10
2019-03-17T15:26:01.564Z,78.90
2019-03-17T15:28:28.169Z,79.50
2019-03-17T15:31:09.740Z,80.60
2019-03-17T15:33:22.764Z,79.90
2019-03-17T15:35:49.013Z,80.50
2019-03-17T15:38:15.224Z,81.00
2019-03-17T15:40:41.436Z,81.00
2019-03-17T15:43:07.670Z,81.50
2019-03-17T15:45:33.904Z,81.30
2019-03-17T15:48:00.217Z,81.20
2019-03-17T15:50:28.652Z,81.20
2019-03-17T15:52:54.962Z,81.80
2019-03-17T15:55:21.168Z,82.40
2019-03-17T15:57:47.600Z,82.80
2019-03-17T16:00:24.798Z,83.00
2019-03-17T16:02:45.113Z,83.10
2019-03-17T16:05:11.891Z,83.60
2019-03-17T16:07:42.545Z,83.80
2019-03-17T16:10:09.725Z,84.00
2019-03-17T16:12:36.519Z,84.10
2019-03-17T16:15:05.844Z,84.60
2019-03-17T16:17:32.137Z,84.90
2019-03-17T16:19:58.457Z,85.00
2019-03-17T16:22:24.681Z,84.90
2019-03-17T16:24:51.236Z,85.50
2019-03-17T16:27:17.569Z,86.10
2019-03-17T16:29:43.777Z,86.90
2019-03-17T16:32:09.991Z,87.40
2019-03-17T16:34:36.227Z,87.40
2019-03-17T16:37:02.453Z,88.00
2019-03-17T16:39:28.857Z,88.70
2019-03-17T16:41:55.207Z,89.50
2019-03-17T16:44:21.504Z,90.00
2019-03-17T16:46:47.724Z,90.40
2019-03-17T16:49:14.061Z,90.50
2019-03-17T16:51:40.281Z,90.60
2019-03-17T16:54:06.498Z,90.70
2019-03-17T16:56:33.719Z,90.70
2019-03-17T16:59:00.072Z,90.70
2019-03-17T17:01:26.328Z,90.70
2019-03-17T17:03:52.643Z,90.70
2019-03-17T17:06:18.856Z,90.80
2019-03-17T17:08:45.079Z,90.80
2019-03-17T17:11:11.385Z,90.80
2019-03-17T17:13:37.588Z,91.00
2019-03-17T17:16:03.805Z,91.00
2019-03-17T17:18:30.379Z,91.40
2019-03-17T17:20:56.693Z,91.20
2019-03-17T17:23:22.900Z,91.20
2019-03-17T17:25:49.282Z,91.20
2019-03-17T17:28:15.580Z,91.20
2019-03-17T17:30:41.809Z,91.20
2019-03-17T17:33:08.227Z,91.30
2019-03-17T17:35:34.434Z,91.30
2019-03-17T17:38:00.652Z,91.40
2019-03-17T17:40:26.966Z,91.50
2019-03-17T17:42:53.177Z,91.60
2019-03-17T17:45:23.495Z,91.70
2019-03-17T17:47:49.805Z,91.80
2019-03-17T17:50:17.116Z,91.90
2019-03-17T17:52:43.325Z,92.00
2019-03-17T17:55:09.750Z,92.10
2019-03-17T17:57:35.957Z,92.10
2019-03-17T18:00:05.188Z,92.20
2019-03-17T18:02:31.524Z,92.30
2019-03-17T18:04:57.740Z,92.30
2019-03-17T18:07:23.962Z,92.30
2019-03-17T18:09:50.228Z,92.40
2019-03-17T18:12:20.898Z,92.40
2019-03-17T18:14:44.561Z,92.40
2019-03-17T18:17:10.805Z,92.50
2019-03-17T18:19:37.017Z,92.50
2019-03-17T18:22:04.233Z,92.60
2019-03-17T18:24:30.554Z,92.60
2019-03-17T18:26:56.765Z,92.60
2019-03-17T18:29:22.976Z,92.70
2019-03-17T18:31:49.201Z,92.80
2019-03-17T18:34:15.411Z,92.90
2019-03-17T18:36:41.705Z,92.90
2019-03-17T18:39:08.135Z,93.00
2019-03-17T18:41:34.353Z,93.00
2019-03-17T18:44:00.576Z,93.10
2019-03-17T18:46:26.821Z,93.20
2019-03-17T18:48:53.121Z,93.20
2019-03-17T18:51:19.329Z,93.30
2019-03-17T18:53:45.573Z,93.30
2019-03-17T18:56:11.780Z,93.20
2019-03-17T18:58:37.994Z,93.30
2019-03-17T19:01:04.225Z,93.30
2019-03-17T19:03:30.448Z,93.20
2019-03-17T19:05:56.724Z,93.20
2019-03-17T19:08:22.969Z,93.20
2019-03-17T19:10:49.185Z,93.20
2019-03-17T19:13:15.401Z,93.20
2019-03-17T19:15:41.625Z,93.30
2019-03-17T19:18:07.847Z,93.30
2019-03-17T19:20:34.059Z,93.30
2019-03-17T19:23:00.293Z,93.40
2019-03-17T19:25:26.507Z,93.50
2019-03-17T19:27:52.732Z,93.50
2019-03-17T19:30:19.749Z,93.60
2019-03-17T19:32:46.420Z,93.70
2019-03-17T19:35:13.492Z,93.80
2019-03-17T19:37:39.721Z,93.80
2019-03-17T19:40:21.989Z,93.80
2019-03-17T19:42:57.825Z,93.80
2019-03-17T19:45:17.341Z,93.80
2019-03-17T19:47:43.548Z,93.70
2019-03-17T19:50:12.989Z,93.70
2019-03-17T19:52:39.209Z,93.70
2019-03-17T19:55:07.323Z,93.70
2019-03-17T19:57:33.550Z,93.70
2019-03-17T19:59:59.761Z,93.70
2019-03-17T20:02:25.990Z,93.70
2019-03-17T20:04:52.226Z,93.80
2019-03-17T20:07:18.439Z,93.80
2019-03-17T20:09:44.655Z,93.80
2019-03-17T20:12:10.877Z,93.70
2019-03-17T20:14:37.098Z,93.60
2019-03-17T20:17:03.400Z,93.50
2019-03-17T20:19:29.623Z,93.30
2019-03-17T20:21:55.842Z,93.30
2019-03-17T20:24:22.061Z,93.30
2019-03-17T20:26:48.308Z,93.30
2019-03-17T20:29:14.517Z,93.30
2019-03-17T20:31:40.728Z,93.30
2019-03-17T20:34:06.969Z,93.40
2019-03-17T20:36:33.177Z,93.40
2019-03-17T20:38:59.389Z,93.40
2019-03-17T20:41:25.620Z,93.40
2019-03-17T20:43:51.829Z,93.50
2019-03-17T20:46:18.040Z,93.90
2019-03-17T20:48:44.350Z,93.70
2019-03-17T20:51:10.559Z,93.70
2019-03-17T20:53:36.765Z,93.60
2019-03-17T20:56:03.089Z,93.60
2019-03-17T20:58:29.494Z,93.60
2019-03-17T21:00:55.700Z,93.60
2019-03-17T21:03:22.012Z,93.60
2019-03-17T21:05:48.229Z,93.40
2019-03-17T21:08:14.444Z,93.30
2019-03-17T21:10:41.668Z,93.30
2019-03-17T21:13:08.873Z,93.20
2019-03-17T21:15:35.089Z,93.20
2019-03-17T21:18:01.306Z,93.20
2019-03-17T21:20:27.520Z,93.00
2019-03-17T21:22:53.733Z,93.00
2019-03-17T21:25:20.054Z,92.90
2019-03-17T21:27:46.345Z,92.90
2019-03-17T21:30:25.061Z,93.00
2019-03-17T21:32:51.365Z,92.90
2019-03-17T21:35:17.761Z,92.90
2019-03-17T21:37:44.160Z,92.80
2019-03-17T21:40:10.873Z,92.80
2019-03-17T21:42:37.086Z,92.80
2019-03-17T21:45:05.205Z,92.80
2019-03-17T21:47:31.412Z,92.90
2019-03-17T21:49:57.625Z,92.90
2019-03-17T21:52:23.965Z,92.90
2019-03-17T21:54:50.273Z,92.80
2019-03-17T21:57:16.493Z,92.70
2019-03-17T21:59:42.901Z,92.70
2019-03-17T22:02:13.163Z,92.60
2019-03-17T22:04:37.230Z,92.50
2019-03-17T22:07:03.606Z,92.80
2019-03-17T22:09:29.949Z,92.60
2019-03-17T22:11:56.158Z,92.70
2019-03-17T22:14:22.444Z,92.60
2019-03-17T22:16:48.661Z,92.50
2019-03-17T22:19:14.884Z,92.50
2019-03-17T22:21:41.201Z,92.30
2019-03-17T22:24:07.413Z,92.10
2019-03-17T22:26:33.617Z,92.00
2019-03-17T22:28:59.841Z,92.00
2019-03-17T22:31:26.045Z,92.10
2019-03-17T22:33:52.261Z,91.90
2019-03-17T22:36:18.644Z,91.90
2019-03-17T22:38:44.948Z,91.70
2019-03-17T22:41:11.163Z,91.60
2019-03-17T22:43:37.395Z,91.50
2019-03-17T22:46:03.601Z,91.50
2019-03-17T22:48:29.813Z,91.20
2019-03-17T22:50:56.143Z,91.20
2019-03-17T22:53:22.446Z,91.10
2019-03-17T22:55:48.686Z,90.90
2019-03-17T22:58:14.905Z,90.90
2019-03-17T23:00:41.813Z,90.70
2019-03-17T23:03:08.420Z,90.70
2019-03-17T23:05:34.643Z,90.90
2019-03-17T23:08:00.866Z,90.90
2019-03-17T23:10:27.173Z,91.00
2019-03-17T23:12:54.413Z,91.00
2019-03-17T23:15:20.722Z,91.20
2019-03-17T23:17:46.929Z,91.20
2019-03-17T23:20:14.261Z,91.00
2019-03-17T23:22:40.488Z,90.90
2019-03-17T23:25:09.121Z,90.90
2019-03-17T23:27:35.525Z,91.00
2019-03-17T23:30:02.041Z,90.90
2019-03-17T23:32:29.656Z,91.10
2019-03-17T23:34:55.966Z,91.00
2019-03-17T23:37:22.249Z,91.30
2019-03-17T23:39:48.465Z,91.50
2019-03-17T23:42:14.773Z,91.70
2019-03-17T23:44:48.848Z,92.00
2019-03-17T23:47:09.101Z,92.10
2019-03-17T23:49:35.344Z,92.30
2019-03-17T23:52:01.665Z,92.50
2019-03-17T23:54:27.881Z,92.50
2019-03-17T23:56:54.190Z,92.40
2019-03-17T23:59:20.405Z,92.70
